Airfield :
LOGIN :

Register | Disclaimer

   EN    FR    IT 

 










Legend :    VFR   Marginal VFR   IFR   Intensive IFR   Very Intensive IFR
Visi :
Ceiling :
>= 8 km
>= 3000ft
5 to 8 km
1000 to 3000 ft
1500m to 5 km
500 to 1000 ft
800 to 1500m
200 to 500 ft
< 800m
< 200 ft
Symbols :   Thunderstorms  Fog  Heavy snow  Heavy precipitations  Wind > 20 kt
SIGMETs :     Misc.  Thunderstorms  Icing  Turbulence  Mountain Waves  Volcanic Ashes







- Airport Elevation : 3 ft
- IATA code : DHR


EHKD - Den Helder De Kooy

CURRENT METAR :
  • 222009Z AUTO 07012KT 8000 DZ BKN017 BKN021 OVC024 02/01 Q1025 WHT 06009KT 8000 FEW015 BKN020 OVC030 TEMPO 4000 -DZ SCT015 OVC020

EXPIRED METARs :
  • 222001Z AUTO 07012KT 3500 R21/P3000D +DZ SCT015 BKN018 OVC025 02/00 Q1025 YLO 06009KT 8000 FEW015 BKN020 OVC030 TEMPO 4000 -DZ SCT015 OVC020
  • 221955Z AUTO 06010KT 9999 FEW018 BKN023 OVC028 02/M00 Q1025 WHT 06009KT 8000 FEW015 BKN020 OVC030
  • 221937Z AUTO 06010KT 9000 BR SCT024 OVC027 02/M00 Q1025 WHT 06009KT 8000 FEW015 BKN020 OVC030
  • 221925Z AUTO 06009KT 8000 BR OVC025 02/M00 Q1025 BLU 06009KT 8000 FEW015 BKN020 OVC030
  • 221903Z AUTO 05010KT 9000 HZ OVC018 02/M00 Q1025 WHT 06009KT 8000 FEW015 BKN020 OVC030
  • 221855Z AUTO 05011KT 9000 HZ BKN019 OVC030 02/M00 Q1025 WHT 06009KT 8000 SCT020 BKN030
  • 221825Z AUTO 05010KT 9000 HZ BKN029 BKN033 OVC042 02/M01 Q1025 BLU 06009KT 8000 FEW020 BKN030
  • 221755Z AUTO 06010KT 9000 HZ FEW045 SCT059 02/M01 Q1025 BLU 06009KT 9999 FEW020 BKN045
  • 221725Z AUTO 05012KT 9999 OVC045 02/M01 Q1025 BLU 06009KT 9999 FEW020 BKN045

TAF TAF EHKD
Valid from the 22 at 18:00 until the 23 at 06:00 UTC


221741Z 2218/2306 06008KT 7000 FEW018 SCT040
PROB30
TEMPO 2304/2306 4000 BR SCT005 BKN009
No reported NOTAMs for that airfield.



MET'MAP, your aeronautical weather chart ! - Copyright ORBIFLY December 2007 - Disclaimer

ORBIFLY MET'MAP TEAM :

Programming & Development : Alexandra Zaïnal
Concept & Development : Baudouin d'Aumeries
Co-Development & Prog : Marc-Olivier Méhu
Technical & hardware support : Manuel Goepfert

Contact : metmap@orbifly.com




SOURCES & CREDITS :

   NOAA